< < Back
Terminal Aerodrome Forecast


Current Version              Previous Versions:   1  2  3  4  5  6  7  8  9  

Terminal Aerodrome Forecast

361
FTUS44 KHUN 231120
TAFHSV
TAF
KHSV 231120Z 2312/2412 02003KT P6SM SKC
     FM231400 04009KT P6SM SKC
     FM240000 VRB02KT P6SM SKC=



Latest METAR

562
SAUS80 KWBC 241000 RRA
MTRHSV
METAR KHSV 240953Z AUTO 00000KT 10SM CLR 08/06 A2997 RMK AO2 SLP146
T00780061


USA.gov is the U.S. government's official web portal to all federal, state and local government web resources and services.